createdAt,value
2022-12-08T00:02:38.221Z,20.20
2022-12-08T00:07:59.054Z,26.17
2022-12-08T00:13:00.795Z,18.47
2022-12-08T00:18:03.818Z,17.60
2022-12-08T00:23:05.595Z,27.57
2022-12-08T00:28:07.355Z,21.77
2022-12-08T00:33:10.516Z,21.40
2022-12-08T00:38:12.303Z,25.33
2022-12-08T00:43:14.062Z,37.50
2022-12-08T00:48:17.144Z,24.40
2022-12-08T00:53:18.874Z,23.00
2022-12-08T00:58:20.639Z,25.17
2022-12-08T01:03:23.903Z,27.03
2022-12-08T01:08:25.799Z,50.40
2022-12-08T01:13:27.955Z,27.17
2022-12-08T01:18:31.069Z,23.20
2022-12-08T01:23:32.847Z,27.50
2022-12-08T01:28:34.565Z,25.20
2022-12-08T01:33:37.631Z,23.30
2022-12-08T01:38:39.363Z,27.47
2022-12-08T01:43:50.911Z,27.40
2022-12-08T01:48:55.210Z,20.60
2022-12-08T01:53:56.939Z,25.73
2022-12-08T01:58:58.669Z,27.10
2022-12-08T02:04:02.595Z,22.00
2022-12-08T02:09:04.410Z,24.50
2022-12-08T02:14:06.708Z,29.03
2022-12-08T02:19:31.444Z,25.17
2022-12-08T02:24:36.238Z,24.20
2022-12-08T02:30:16.001Z,25.47
2022-12-08T02:35:20.491Z,22.07
2022-12-08T02:40:23.531Z,21.03
2022-12-08T02:45:26.194Z,26.20
2022-12-08T02:50:29.372Z,22.50
2022-12-08T02:55:33.798Z,23.23
2022-12-08T03:00:38.621Z,23.97
2022-12-08T03:06:01.063Z,23.60
2022-12-08T03:11:04.137Z,21.30
2022-12-08T03:16:06.693Z,18.17
2022-12-08T03:21:10.104Z,22.97
2022-12-08T03:26:12.701Z,24.17
2022-12-08T03:31:14.631Z,19.50
2022-12-08T03:36:17.772Z,21.20
2022-12-08T03:41:19.668Z,21.90
2022-12-08T03:51:24.600Z,24.67
2022-12-08T03:56:28.346Z,22.53
2022-12-08T04:01:30.112Z,22.80
2022-12-08T04:06:33.287Z,18.93
2022-12-08T04:11:35.073Z,23.93
2022-12-08T04:16:36.900Z,29.87
2022-12-08T04:21:39.996Z,22.70
2022-12-08T04:26:41.837Z,22.53
2022-12-08T04:31:43.702Z,24.10
2022-12-08T04:36:46.818Z,22.30
2022-12-08T04:41:48.570Z,23.03
2022-12-08T04:46:50.345Z,22.63
2022-12-08T04:51:53.397Z,18.27
2022-12-08T04:56:55.122Z,20.30
2022-12-08T05:01:56.958Z,21.80
2022-12-08T05:07:00.120Z,17.90
2022-12-08T05:12:01.856Z,21.20
2022-12-08T05:17:09.127Z,19.37
2022-12-08T05:22:12.787Z,36.00
2022-12-08T05:27:14.537Z,16.40
2022-12-08T05:32:16.288Z,20.23
2022-12-08T05:37:19.369Z,19.70
2022-12-08T05:42:24.736Z,19.30
2022-12-08T05:47:28.153Z,21.67
2022-12-08T05:52:33.796Z,21.33
2022-12-08T05:57:35.643Z,18.73
2022-12-08T06:02:37.477Z,21.07
2022-12-08T06:07:40.731Z,20.53
2022-12-08T06:12:42.515Z,22.60
2022-12-08T06:17:44.252Z,24.90
2022-12-08T06:22:47.293Z,23.03
2022-12-08T06:27:49.162Z,28.57
2022-12-08T06:32:50.906Z,36.33
2022-12-08T06:37:54.034Z,25.13
2022-12-08T06:42:56.065Z,27.10
2022-12-08T06:47:57.820Z,29.80
2022-12-08T06:53:05.231Z,27.40
2022-12-08T06:58:07.501Z,33.33
2022-12-08T07:03:09.312Z,26.93
2022-12-08T07:08:12.661Z,27.97
2022-12-08T07:13:14.504Z,31.43
2022-12-08T07:18:16.722Z,27.33
2022-12-08T07:23:19.802Z,28.20
2022-12-08T07:28:21.514Z,33.73
2022-12-08T07:33:24.154Z,38.23
2022-12-08T07:38:27.326Z,33.83
2022-12-08T07:43:29.043Z,36.87
2022-12-08T07:48:30.738Z,41.00
2022-12-08T07:53:33.999Z,38.93
2022-12-08T07:58:35.791Z,42.33
2022-12-08T08:03:37.604Z,41.80
2022-12-08T08:08:40.785Z,39.30
2022-12-08T08:13:42.575Z,36.50
2022-12-08T08:18:46.465Z,33.97
2022-12-08T08:23:49.609Z,29.73
2022-12-08T08:28:51.373Z,31.87
2022-12-08T08:33:53.193Z,25.40
2022-12-08T08:38:56.311Z,33.23
2022-12-08T08:43:58.075Z,32.50
2022-12-08T08:48:59.828Z,26.70
2022-12-08T08:54:02.940Z,25.83
2022-12-08T08:59:04.742Z,24.70
2022-12-08T09:04:06.600Z,21.13
2022-12-08T09:09:09.811Z,21.33
2022-12-08T09:14:11.878Z,22.30
2022-12-08T09:19:13.666Z,20.87
2022-12-08T09:24:16.793Z,20.83
2022-12-08T09:29:18.627Z,22.13
2022-12-08T09:34:20.519Z,26.57
2022-12-08T09:39:23.635Z,18.80
2022-12-08T09:44:46.765Z,20.50
2022-12-08T09:49:52.500Z,17.37
2022-12-08T09:54:55.985Z,16.90
2022-12-08T09:59:58.960Z,25.97
2022-12-08T10:05:00.822Z,21.20
2022-12-08T10:10:08.364Z,19.10
2022-12-08T10:15:22.880Z,22.03
2022-12-08T10:20:25.576Z,28.57
2022-12-08T10:25:30.347Z,30.20
2022-12-08T10:30:32.085Z,27.77
2022-12-08T10:35:43.128Z,31.37
2022-12-08T10:40:46.185Z,25.67
2022-12-08T10:45:47.923Z,26.77
2022-12-08T10:50:54.031Z,29.17
2022-12-08T10:56:07.960Z,21.83
2022-12-08T11:01:12.152Z,20.33
2022-12-08T11:06:16.431Z,18.90
2022-12-08T11:11:23.176Z,18.17
2022-12-08T11:16:29.447Z,20.30
2022-12-08T11:21:35.694Z,16.80
2022-12-08T11:26:38.715Z,17.40
2022-12-08T11:31:41.543Z,17.77
2022-12-08T11:36:43.288Z,15.73
2022-12-08T11:41:46.448Z,16.73
2022-12-08T11:46:50.005Z,14.53
2022-12-08T11:51:53.440Z,11.37
2022-12-08T11:56:57.266Z,14.17
2022-12-08T12:01:59.376Z,16.17
2022-12-08T12:07:42.340Z,20.33
2022-12-08T12:12:57.251Z,12.33
2022-12-08T12:18:00.030Z,9.53
2022-12-08T12:23:03.508Z,9.60
2022-12-08T12:28:07.031Z,15.30
2022-12-08T12:33:13.349Z,12.43
2022-12-08T12:38:39.196Z,8.17
2022-12-08T12:44:23.968Z,9.77
2022-12-08T12:50:14.754Z,10.47
2022-12-08T12:55:24.050Z,9.90
2022-12-08T13:00:27.400Z,9.73
2022-12-08T13:05:29.836Z,7.17
2022-12-08T13:10:32.376Z,7.70
2022-12-08T13:15:37.085Z,9.73
2022-12-08T13:20:42.296Z,7.03
2022-12-08T13:25:49.103Z,6.47
2022-12-08T13:30:53.072Z,7.67
2022-12-08T13:36:18.587Z,10.30
2022-12-08T13:41:22.097Z,9.10
2022-12-08T13:57:23.916Z,10.83
2022-12-08T14:02:28.695Z,8.67
2022-12-08T14:07:31.434Z,10.50
2022-12-08T14:12:33.143Z,7.73
2022-12-08T14:17:36.191Z,8.57
2022-12-08T14:22:38.961Z,7.60
2022-12-08T14:27:40.680Z,10.00
2022-12-08T14:32:44.880Z,10.73
2022-12-08T14:37:47.946Z,13.23
2022-12-08T14:42:51.189Z,11.87
2022-12-08T14:47:54.256Z,11.93
2022-12-08T14:52:56.011Z,12.97
2022-12-08T14:57:58.206Z,9.30
2022-12-08T15:03:05.224Z,9.80
2022-12-08T15:08:06.966Z,10.23
2022-12-08T15:13:21.921Z,9.70
2022-12-08T15:18:30.121Z,9.60
2022-12-08T15:23:32.950Z,10.13
2022-12-08T15:28:35.799Z,12.80
2022-12-08T15:33:39.250Z,11.60
2022-12-08T15:38:40.980Z,9.60
2022-12-08T15:43:42.711Z,14.27
2022-12-08T15:48:45.797Z,14.93
2022-12-08T15:53:47.487Z,11.70
2022-12-08T15:58:54.126Z,9.50
2022-12-08T16:09:21.311Z,10.93
2022-12-08T16:15:38.643Z,15.40
2022-12-08T16:19:46.423Z,21.27
2022-12-08T16:24:48.162Z,35.63
2022-12-08T16:29:50.131Z,29.30
2022-12-08T16:34:53.162Z,16.63
2022-12-08T16:39:57.014Z,19.03
2022-12-08T16:44:58.795Z,13.53
2022-12-08T16:50:03.757Z,10.40
2022-12-08T16:55:08.148Z,13.47
2022-12-08T17:00:11.576Z,36.90
2022-12-08T17:05:15.499Z,78.93
2022-12-08T17:10:18.533Z,39.93
2022-12-08T17:15:21.275Z,34.73
2022-12-08T17:20:25.693Z,38.70
2022-12-08T17:25:27.475Z,35.87
2022-12-08T17:30:29.228Z,20.30
2022-12-08T17:35:32.391Z,18.60
2022-12-08T17:40:34.109Z,18.10
2022-12-08T17:45:39.881Z,17.07
2022-12-08T17:50:43.907Z,17.03
2022-12-08T17:55:51.518Z,20.77
2022-12-08T18:00:53.357Z,26.20
2022-12-08T18:05:56.436Z,20.93
2022-12-08T18:10:58.187Z,21.80
2022-12-08T18:15:59.984Z,17.43
2022-12-08T18:21:03.141Z,19.63
2022-12-08T18:26:05.134Z,18.63
2022-12-08T18:31:08.464Z,16.37
2022-12-08T18:36:13.765Z,20.63
2022-12-08T18:41:16.631Z,23.77
2022-12-08T18:46:18.409Z,21.00
2022-12-08T18:51:22.465Z,21.87
2022-12-08T18:56:25.045Z,20.27
2022-12-08T19:01:26.960Z,24.03
2022-12-08T19:06:30.177Z,20.90
2022-12-08T19:11:31.934Z,14.50
2022-12-08T19:16:33.771Z,16.60
2022-12-08T19:21:42.883Z,14.60
2022-12-08T19:26:47.781Z,19.67
2022-12-08T19:31:49.653Z,204.73
2022-12-08T19:36:52.839Z,73.47
2022-12-08T19:42:12.949Z,80.00
2022-12-08T19:47:14.902Z,47.30
2022-12-08T19:52:18.077Z,35.50
2022-12-08T19:57:20.386Z,25.80
2022-12-08T20:02:22.167Z,39.60
2022-12-08T20:07:25.397Z,40.83
2022-12-08T20:12:27.143Z,37.50
2022-12-08T20:17:28.834Z,28.17
2022-12-08T20:22:31.883Z,36.47
2022-12-08T20:27:33.632Z,35.30
2022-12-08T20:32:35.387Z,51.27
2022-12-08T20:37:38.432Z,41.20
2022-12-08T20:42:40.203Z,53.00
2022-12-08T20:47:41.965Z,72.60
2022-12-08T20:52:45.141Z,35.53
2022-12-08T20:57:46.842Z,37.87
2022-12-08T21:02:54.782Z,36.60
2022-12-08T21:07:59.537Z,36.70
2022-12-08T21:13:05.474Z,36.97
2022-12-08T21:18:07.454Z,44.87
2022-12-08T21:23:10.765Z,60.73
2022-12-08T21:28:12.669Z,60.03
2022-12-08T21:33:14.575Z,38.37
2022-12-08T21:38:18.162Z,40.83
2022-12-08T21:43:20.121Z,46.87
2022-12-08T21:48:21.980Z,34.83
2022-12-08T21:53:26.489Z,32.53
2022-12-08T21:58:28.547Z,36.20
2022-12-08T22:03:30.720Z,29.80
2022-12-08T22:08:34.022Z,35.77
2022-12-08T22:13:36.353Z,45.70
2022-12-08T22:18:38.287Z,47.77
2022-12-08T22:23:41.692Z,39.50
2022-12-08T22:28:44.425Z,41.70
2022-12-08T22:33:46.483Z,44.07
2022-12-08T22:38:49.892Z,40.00
2022-12-08T22:43:51.838Z,42.17
2022-12-08T22:48:54.176Z,43.63
2022-12-08T22:53:57.500Z,47.67
2022-12-08T22:58:59.461Z,42.27
2022-12-08T23:04:01.526Z,45.03
2022-12-08T23:09:05.392Z,50.40
2022-12-08T23:14:07.411Z,155.43
2022-12-08T23:19:09.589Z,306.30
2022-12-08T23:24:12.958Z,550.63
2022-12-08T23:29:15.450Z,284.30
2022-12-08T23:34:17.461Z,519.93
2022-12-08T23:39:24.121Z,183.73
2022-12-08T23:44:26.031Z,135.67
2022-12-08T23:49:28.085Z,263.47
2022-12-08T23:54:31.335Z,259.63
2022-12-08T23:59:33.189Z,273.57
